.
WxDataArchive / Data Records for 2010-04-09
2010-04-08 April 2010 2010-04-10

Data Records for Friday, 09 April 2010

Time	Temp	Chill	HIndex	Humid	Dewpt	 Wind 	HiWind	WindDir	Rain 	Barom 
-----	----	-----	------	-----	-----	------	------	-------	-----	----- 
00:00	36.8	36.8	36.8	77	30.3	1	2	248	0.00	29.895 
00:05	36.8	36.8	36.8	76	30.0	1	2	248	0.00	29.895 
00:10	36.8	36.8	36.8	77	30.3	0	2	248	0.00	29.895 
00:15	36.8	36.8	36.8	77	30.3	1	3	248	0.00	29.889 
00:20	36.8	36.8	36.8	77	30.3	0	2	338	0.00	29.889 
00:25	36.8	36.8	36.8	77	30.3	0	1	338	0.00	29.889 
00:30	36.6	36.6	36.6	77	30.1	0	1	338	0.00	29.892 
00:35	36.6	36.6	36.6	78	30.4	0	1	338	0.00	29.892 
00:40	36.6	36.6	36.6	78	30.4	0	2	338	0.00	29.892 
00:45	36.6	36.6	36.6	78	30.4	1	2	225	0.00	29.893 
00:50	36.6	36.6	36.6	78	30.4	0	2	225	0.00	29.893 
00:55	36.6	36.6	36.6	77	30.1	1	3	225	0.00	29.893 
01:00	36.6	36.6	36.6	77	30.1	0	1	225	0.00	29.895 
01:05	36.6	36.6	36.6	77	30.1	1	2	225	0.00	29.895 
01:10	36.6	36.6	36.6	77	30.1	0	3	225	0.00	29.895 
01:15	36.8	36.8	36.8	77	30.3	0	2	225	0.00	29.898 
01:20	36.8	36.8	36.8	77	30.3	1	2	225	0.00	29.898 
01:25	36.8	36.8	36.8	77	30.3	0	2	225	0.00	29.898 
01:30	36.8	36.8	36.8	77	30.3	1	2	225	0.00	29.901 
01:35	36.8	36.8	36.8	77	30.3	1	3	225	0.00	29.901 
01:40	36.8	36.8	36.8	77	30.3	1	3	225	0.00	29.901 
01:45	36.8	36.8	36.8	77	30.3	0	2	225	0.00	29.901 
01:50	36.9	36.9	36.9	78	30.7	0	1	225	0.00	29.901 
01:55	36.9	36.9	36.9	78	30.7	0	3	225	0.00	29.901 
02:00	36.9	36.9	36.9	78	30.7	0	2	225	0.00	29.903 
02:05	36.9	36.9	36.9	78	30.7	1	3	225	0.00	29.903 
02:10	36.8	36.8	36.8	78	30.6	2	3	225	0.00	29.903 
02:15	36.8	36.8	36.8	78	30.6	1	2	225	0.00	29.908 
02:20	36.8	36.8	36.8	78	30.6	1	3	225	0.00	29.908 
02:25	36.8	36.8	36.8	78	30.6	1	3	225	0.00	29.908 
02:30	36.6	36.6	36.6	77	30.1	1	3	225	0.00	29.907 
02:35	36.6	36.6	36.6	77	30.1	1	3	248	0.00	29.907 
02:40	36.6	36.6	36.6	77	30.1	0	3	248	0.00	29.907 
02:45	36.8	36.8	36.8	77	30.3	1	2	248	0.00	29.909 
02:50	36.8	36.8	36.8	77	30.3	0	2	248	0.00	29.909 
02:55	36.8	36.8	36.8	78	30.6	1	3	248	0.00	29.909 
03:00	36.9	36.9	36.9	78	30.7	0	2	248	0.00	29.909 
03:05	36.9	36.9	36.9	79	31.0	1	3	248	0.00	29.909 
03:10	36.9	36.9	36.9	78	30.7	1	3	248	0.00	29.909 
03:15	36.9	36.9	36.9	79	31.0	0	2	248	0.00	29.900 
03:20	36.9	36.9	36.9	79	31.0	1	3	248	0.00	29.900 
03:25	36.9	36.9	36.9	78	30.7	1	2	248	0.00	29.900 
03:30	36.9	36.9	36.9	78	30.7	0	2	248	0.00	29.900 
03:35	36.9	36.9	36.9	78	30.7	0	2	248	0.00	29.900 
03:40	36.9	36.9	36.9	79	31.0	0	2	248	0.00	29.900 
03:45	36.9	36.9	36.9	79	31.0	1	3	248	0.00	29.898 
03:50	37.0	37.0	37.0	79	31.1	1	4	225	0.00	29.898 
03:55	37.0	37.0	37.0	79	31.1	0	2	225	0.00	29.898 
04:00	37.0	37.0	37.0	79	31.1	0	2	225	0.00	29.901 
04:05	37.0	37.0	37.0	79	31.1	1	2	225	0.00	29.901 
04:10	37.0	37.0	37.0	80	31.4	0	2	225	0.00	29.901 
04:15	36.9	36.9	36.9	80	31.3	1	3	225	0.00	29.905 
04:20	36.8	36.8	36.8	81	31.5	0	2	225	0.00	29.905 
04:25	36.8	36.8	36.8	81	31.5	0	2	225	0.00	29.905 
04:30	36.8	36.8	36.8	82	31.8	0	2	225	0.00	29.907 
04:35	36.6	36.6	36.6	83	31.9	0	2	225	0.00	29.907 
04:40	36.6	36.6	36.6	83	31.9	0	2	225	0.00	29.907 
04:45	36.6	36.6	36.6	84	32.2	1	2	225	0.00	29.906 
04:50	36.6	36.6	36.6	84	32.2	0	3	225	0.01	29.906 
04:55	36.6	36.6	36.6	83	31.9	1	3	248	0.00	29.906 
05:00	36.5	36.5	36.5	82	31.5	1	3	248	0.00	29.909 
05:05	36.5	36.5	36.5	82	31.5	1	3	248	0.00	29.909 
05:10	36.3	36.3	36.3	82	31.3	0	2	248	0.00	29.909 
05:15	36.3	36.3	36.3	82	31.3	0	2	248	0.00	29.915 
05:20	36.2	36.2	36.2	82	31.2	0	2	248	0.00	29.915 
05:25	36.0	36.0	36.0	82	31.0	0	3	248	0.00	29.915 
05:30	35.9	35.9	35.9	82	31.0	0	2	248	0.00	29.918 
05:35	35.9	35.9	35.9	82	31.0	0	2	248	0.00	29.918 
05:40	35.9	35.9	35.9	83	31.2	0	2	248	0.00	29.918 
05:45	35.8	35.8	35.8	83	31.2	0	1	248	0.00	29.921 
05:50	35.8	35.8	35.8	83	31.2	1	2	248	0.00	29.921 
05:55	35.6	35.6	35.6	83	31.0	0	3	248	0.00	29.921 
06:00	35.3	35.3	35.3	83	30.7	0	1	248	0.00	29.931 
06:05	35.2	35.2	35.2	83	30.6	0	1	248	0.00	29.931 
06:10	35.0	35.0	35.0	84	30.7	1	2	248	0.00	29.931 
06:15	34.9	34.9	34.9	83	30.3	0	1	248	0.00	29.938 
06:20	34.7	34.7	34.7	83	30.1	0	2	248	0.00	29.938 
06:25	34.7	34.7	34.7	82	29.8	1	3	248	0.00	29.938 
06:30	34.6	34.6	34.6	82	29.7	0	2	248	0.00	29.947 
06:35	34.6	34.6	34.6	82	29.7	0	2	248	0.00	29.947 
06:40	34.4	34.4	34.4	82	29.5	1	3	248	0.00	29.947 
06:45	34.3	34.3	34.3	81	29.1	0	1	248	0.00	29.951 
06:50	34.1	34.1	34.1	81	28.9	1	3	248	0.00	29.951 
06:55	34.1	34.1	34.1	81	28.9	0	2	248	0.00	29.951 
07:00	34.1	34.1	34.1	81	28.9	1	2	248	0.00	29.957 
07:05	34.0	34.0	34.0	81	28.8	0	2	248	0.00	29.957 
07:10	33.8	33.8	33.8	81	28.6	1	2	248	0.00	29.957 
07:15	33.7	33.7	33.7	81	28.5	0	2	248	0.00	29.965 
07:20	33.7	33.7	33.7	82	28.8	0	2	248	0.00	29.965 
07:25	33.5	33.5	33.5	82	28.6	1	2	248	0.00	29.965 
07:30	33.5	33.5	33.5	82	28.6	1	2	248	0.00	29.967 
07:35	33.5	33.5	33.5	83	28.9	1	2	248	0.00	29.967 
07:40	33.5	33.5	33.5	83	28.9	0	2	248	0.00	29.967 
07:45	33.5	33.5	33.5	83	28.9	1	2	248	0.00	29.973 
07:50	33.7	33.7	33.7	83	29.1	1	3	248	0.00	29.973 
07:55	33.8	33.8	33.8	83	29.2	1	3	248	0.00	29.973 
08:00	34.1	34.1	34.1	82	29.2	1	3	248	0.00	29.976 
08:05	34.4	34.4	34.4	82	29.5	1	3	248	0.00	29.976 
08:10	34.7	34.7	34.7	81	29.5	1	3	225	0.00	29.976 
08:15	35.0	35.0	35.0	80	29.5	1	5	225	0.00	29.983 
08:20	35.3	35.3	35.3	79	29.4	2	5	248	0.00	29.983 
08:25	35.6	35.6	35.6	78	29.4	1	3	248	0.00	29.983 
08:30	35.9	35.9	35.9	77	29.4	1	3	292	0.00	29.989 
08:35	36.2	36.2	36.2	77	29.7	2	4	292	0.00	29.989 
08:40	36.3	36.3	36.3	75	29.1	2	4	248	0.00	29.989 
08:45	36.5	36.5	36.5	74	29.0	2	6	248	0.00	29.996 
08:50	36.8	36.8	36.8	74	29.3	2	4	292	0.00	29.996 
08:55	37.0	37.0	37.0	74	29.5	2	4	270	0.00	29.996 
09:00	37.3	37.3	37.3	73	29.5	2	4	0	0.00	29.999 
09:05	37.6	37.6	37.6	72	29.4	3	6	270	0.00	29.999 
09:10	37.6	37.6	37.6	71	29.1	3	5	270	0.00	29.999 
09:15	37.9	37.9	37.9	70	29.0	2	6	270	0.00	30.002 
09:20	37.9	37.9	37.9	71	29.4	3	7	270	0.00	30.002 
09:25	38.2	38.2	38.2	70	29.3	3	6	270	0.00	30.002 
09:30	38.6	38.6	38.6	70	29.7	2	5	270	0.00	30.007 
09:35	38.6	38.6	38.6	71	30.0	2	5	270	0.00	30.007 
09:40	38.8	35.9	38.8	67	28.8	4	7	338	0.00	30.007 
09:45	38.9	38.9	38.9	66	28.5	2	5	292	0.00	30.008 
09:50	39.1	39.1	39.1	65	28.3	3	9	270	0.00	30.008 
09:55	39.1	39.1	39.1	62	27.2	3	11	315	0.00	30.008 
10:00	39.2	36.4	39.2	60	26.5	4	10	270	0.00	30.011 
10:05	39.8	37.1	39.8	58	26.2	4	7	270	0.00	30.011 
10:10	40.1	37.4	40.1	58	26.5	4	7	292	0.00	30.011 
10:15	40.3	40.3	40.3	57	26.3	3	9	315	0.00	30.013 
10:20	40.8	40.8	40.8	59	27.6	3	6	315	0.00	30.013 
10:25	40.8	38.2	40.8	58	27.2	4	7	270	0.00	30.013 
10:30	41.2	41.2	41.2	58	27.6	2	7	292	0.00	30.015 
10:35	41.1	41.1	41.1	57	27.0	3	7	338	0.00	30.015 
10:40	41.1	41.1	41.1	58	27.5	3	6	270	0.00	30.015 
10:45	41.5	41.5	41.5	57	27.4	3	5	315	0.00	30.024 
10:50	41.5	41.5	41.5	58	27.8	3	9	315	0.00	30.024 
10:55	41.8	39.4	41.8	57	27.7	4	10	270	0.00	30.024 
11:00	41.9	41.9	41.9	55	26.9	3	6	270	0.00	30.026 
11:05	41.8	41.8	41.8	56	27.3	3	11	315	0.00	30.026 
11:10	41.9	39.5	41.9	58	28.2	4	9	270	0.00	30.026 
11:15	42.3	42.3	42.3	57	28.2	3	6	270	0.00	30.030 
11:20	42.5	40.2	42.5	55	27.5	4	7	270	0.00	30.030 
11:25	42.8	42.8	42.8	55	27.8	3	7	270	0.00	30.030 
11:30	42.8	42.8	42.8	56	28.2	3	7	292	0.00	30.039 
11:35	43.1	43.1	43.1	57	28.9	3	7	270	0.00	30.039 
11:40	43.3	41.1	43.3	54	27.8	4	8	270	0.00	30.039 
11:45	43.1	43.1	43.1	55	28.0	3	7	270	0.00	30.042 
11:50	43.6	43.6	43.6	55	28.5	3	6	315	0.00	30.042 
11:55	44.1	44.1	44.1	54	28.5	3	7	270	0.00	30.042 
12:00	44.1	44.1	44.1	53	28.1	3	6	270	0.00	30.042 
12:05	43.9	43.9	43.9	54	28.3	2	10	270	0.00	30.042 
12:10	43.6	43.6	43.6	54	28.1	3	7	315	0.00	30.042 
12:15	43.5	43.5	43.5	52	27.1	3	7	315	0.00	30.044 
12:20	43.6	43.6	43.6	53	27.6	3	9	315	0.00	30.044 
12:25	44.3	44.3	44.3	49	26.4	3	11	292	0.00	30.044 
12:30	44.2	44.2	44.2	52	27.7	3	7	270	0.00	30.042 
12:35	44.3	44.3	44.3	52	27.8	3	4	270	0.00	30.042 
12:40	44.8	44.8	44.8	50	27.3	2	7	292	0.00	30.042 
12:45	44.8	44.8	44.8	50	27.3	3	9	292	0.00	30.040 
12:50	44.9	44.9	44.9	49	26.9	3	7	315	0.00	30.040 
12:55	44.8	44.8	44.8	47	25.8	3	10	315	0.00	30.040 
13:00	44.9	44.9	44.9	51	27.9	2	7	270	0.00	30.040 
13:05	45.5	45.5	45.5	51	28.4	3	6	270	0.00	30.040 
13:10	44.9	43.0	44.9	44	24.3	4	9	338	0.00	30.040 
13:15	45.2	45.2	45.2	50	27.7	3	7	270	0.00	30.043 
13:20	45.5	43.7	45.5	47	26.5	4	7	270	0.00	30.043 
13:25	45.8	45.8	45.8	50	28.2	3	6	270	0.00	30.043 
13:30	46.1	46.1	46.1	46	26.5	3	10	270	0.00	30.042 
13:35	46.1	44.4	46.1	45	26.0	4	7	270	0.00	30.042 
13:40	46.5	46.5	46.5	47	27.4	3	8	270	0.00	30.042 
13:45	46.8	46.8	46.8	45	26.6	3	7	248	0.00	30.042 
13:50	46.7	45.1	46.7	44	26.0	4	10	270	0.00	30.042 
13:55	46.5	46.5	46.5	46	26.8	3	6	270	0.00	30.042 
14:00	46.8	45.2	46.8	44	26.0	4	9	270	0.00	30.049 
14:05	47.4	47.4	47.4	47	28.2	2	6	338	0.00	30.049 
14:10	47.1	45.5	47.1	39	23.4	4	7	315	0.00	30.049 
14:15	47.0	47.0	47.0	41	24.5	3	10	315	0.00	30.051 
14:20	47.0	45.4	47.0	41	24.5	4	9	270	0.00	30.051 
14:25	47.1	44.8	47.1	37	22.2	5	10	270	0.00	30.051 
14:30	47.4	45.9	47.4	40	24.3	4	10	270	0.00	30.051 
14:35	47.3	45.8	47.3	41	24.8	4	12	315	0.00	30.051 
14:40	47.1	45.5	47.1	39	23.4	4	9	315	0.00	30.051 
14:45	47.9	47.9	47.9	42	25.9	3	6	270	0.00	30.052 
14:50	47.9	46.4	47.9	38	23.5	4	10	292	0.00	30.052 
14:55	47.7	46.2	47.7	36	22.1	4	7	270	0.00	30.052 
15:00	48.3	48.3	48.3	39	24.5	3	11	315	0.00	30.054 
15:05	48.2	46.8	48.2	37	23.2	4	11	315	0.00	30.054 
15:10	48.3	46.9	48.3	37	23.3	4	9	270	0.00	30.054 
15:15	48.6	47.3	48.6	34	21.5	4	11	270	0.00	30.052 
15:20	48.5	47.1	48.5	32	20.0	4	10	270	0.00	30.052 
15:25	48.5	46.5	48.5	32	20.0	5	12	270	0.00	30.052 
15:30	48.8	47.5	48.8	33	21.0	4	8	270	0.00	30.050 
15:35	48.8	47.5	48.8	32	20.3	4	10	292	0.00	30.050 
15:40	48.6	46.6	48.6	34	21.5	5	12	270	0.00	30.050 
15:45	48.9	47.6	48.9	33	21.1	4	10	270	0.00	30.054 
15:50	49.2	47.9	49.2	34	22.0	4	10	270	0.00	30.054 
15:55	48.9	46.9	48.9	31	19.6	5	11	292	0.00	30.054 
16:00	48.6	46.6	48.6	33	20.8	5	11	292	0.00	30.055 
16:05	48.5	46.5	48.5	32	20.0	5	12	270	0.00	30.055 
16:10	49.1	47.8	49.1	35	22.6	4	10	315	0.00	30.055 
16:15	48.9	46.9	48.9	30	18.8	5	11	270	0.00	30.059 
16:20	49.1	47.8	49.1	31	19.8	4	9	338	0.00	30.059 
16:25	49.2	49.2	49.2	33	21.3	3	7	270	0.00	30.059 
16:30	49.2	47.3	49.2	31	19.9	5	11	270	0.00	30.066 
16:35	49.4	48.2	49.4	31	20.0	4	10	270	0.00	30.066 
16:40	49.2	47.9	49.2	31	19.9	4	9	270	0.00	30.066 
16:45	49.4	48.2	49.4	31	20.0	4	9	315	0.00	30.069 
16:50	49.4	48.2	49.4	31	20.0	4	7	270	0.00	30.069 
16:55	49.1	47.2	49.1	32	20.5	5	10	270	0.00	30.069 
17:00	49.1	47.8	49.1	34	22.0	4	9	270	0.00	30.072 
17:05	49.1	46.6	49.1	30	19.0	6	10	270	0.00	30.072 
17:10	49.1	47.8	49.1	34	22.0	4	9	270	0.00	30.072 
17:15	48.9	47.6	48.9	32	20.4	4	7	292	0.00	30.083 
17:20	48.9	46.9	48.9	31	19.6	5	8	270	0.00	30.083 
17:25	48.8	47.5	48.8	33	21.0	4	9	315	0.00	30.083 
17:30	48.9	47.6	48.9	33	21.1	4	7	270	0.00	30.085 
17:35	49.2	47.9	49.2	31	19.9	4	9	270	0.00	30.085 
17:40	49.2	49.2	49.2	30	19.1	3	9	292	0.00	30.085 
17:45	48.8	48.8	48.8	31	19.5	3	9	270	0.00	30.090 
17:50	48.9	48.9	48.9	31	19.6	3	10	292	0.00	30.090 
17:55	48.9	48.9	48.9	31	19.6	2	6	338	0.00	30.090 
18:00	48.8	48.8	48.8	31	19.5	3	7	315	0.00	30.100 
18:05	48.8	48.8	48.8	32	20.3	3	6	315	0.00	30.100 
18:10	48.6	48.6	48.6	31	19.3	3	9	292	0.00	30.100 
18:15	48.9	48.9	48.9	31	19.6	2	4	270	0.00	30.107 
18:20	48.9	48.9	48.9	32	20.4	3	7	338	0.00	30.107 
18:25	48.9	48.9	48.9	31	19.6	3	7	315	0.00	30.107 
18:30	49.1	49.1	49.1	33	21.3	3	6	270	0.00	30.115 
18:35	48.9	47.6	48.9	32	20.4	4	9	270	0.00	30.115 
18:40	49.1	49.1	49.1	32	20.5	2	4	292	0.00	30.115 
18:45	49.2	49.2	49.2	33	21.3	2	6	270	0.00	30.118 
18:50	48.9	48.9	48.9	33	21.1	2	5	315	0.00	30.118 
18:55	49.1	49.1	49.1	33	21.3	2	6	315	0.00	30.118 
19:00	48.8	48.8	48.8	32	20.3	3	6	270	0.00	30.124 
19:05	48.8	48.8	48.8	33	21.0	2	7	338	0.00	30.124 
19:10	48.8	48.8	48.8	32	20.3	2	6	315	0.00	30.124 
19:15	48.6	48.6	48.6	32	20.1	2	6	315	0.00	30.130 
19:20	48.6	48.6	48.6	33	20.8	2	6	315	0.00	30.130 
19:25	48.5	48.5	48.5	33	20.7	2	6	338	0.00	30.130 
19:30	48.3	48.3	48.3	35	21.9	2	5	315	0.00	30.130 
19:35	48.3	48.3	48.3	34	21.3	2	4	315	0.00	30.130 
19:40	48.2	48.2	48.2	35	21.8	2	5	315	0.00	30.130 
19:45	48.0	48.0	48.0	35	21.7	2	4	248	0.00	30.133 
19:50	47.9	47.9	47.9	37	22.9	0	2	338	0.00	30.133 
19:55	47.7	47.7	47.7	37	22.7	1	3	338	0.00	30.133 
20:00	47.6	47.6	47.6	38	23.3	0	2	338	0.00	30.136 
20:05	47.3	47.3	47.3	39	23.6	0	3	338	0.00	30.136 
20:10	47.1	47.1	47.1	39	23.4	0	3	292	0.00	30.136 
20:15	46.8	46.8	46.8	39	23.2	0	2	292	0.00	30.143 
20:20	46.7	46.7	46.7	40	23.7	0	1	292	0.00	30.143 
20:25	46.4	46.4	46.4	41	24.0	0	1	292	0.00	30.143 
20:30	46.0	46.0	46.0	42	24.2	0	1	292	0.00	30.148 
20:35	45.7	45.7	45.7	42	23.9	0	1	292	0.00	30.148 
20:40	45.5	45.5	45.5	42	23.8	0	1	292	0.00	30.148 
20:45	45.4	45.4	45.4	43	24.2	0	0	---	0.00	30.154 
20:50	45.2	45.2	45.2	44	24.6	0	1	292	0.00	30.154 
20:55	44.9	44.9	44.9	44	24.3	0	0	---	0.00	30.154 
21:00	44.5	44.5	44.5	45	24.5	0	0	---	0.00	30.164 
21:05	44.2	44.2	44.2	46	24.7	0	0	---	0.00	30.164 
21:10	43.9	43.9	43.9	46	24.5	0	0	---	0.00	30.164 
21:15	43.6	43.6	43.6	47	24.7	0	0	---	0.00	30.166 
21:20	43.2	43.2	43.2	48	24.9	0	0	---	0.00	30.166 
21:25	42.9	42.9	42.9	49	25.1	0	0	---	0.00	30.166 
21:30	42.5	42.5	42.5	50	25.2	0	0	---	0.00	30.170 
21:35	42.1	42.1	42.1	50	24.8	0	0	---	0.00	30.170 
21:40	41.6	41.6	41.6	51	24.8	0	0	---	0.00	30.170 
21:45	41.2	41.2	41.2	52	24.9	0	0	---	0.00	30.175 
21:50	40.8	40.8	40.8	54	25.5	0	0	---	0.00	30.175 
21:55	40.2	40.2	40.2	54	24.9	0	0	---	0.00	30.175 
22:00	39.8	39.8	39.8	55	25.0	0	0	---	0.00	30.182 
22:05	39.3	39.3	39.3	58	25.8	0	0	---	0.00	30.182 
22:10	39.1	39.1	39.1	59	26.0	0	0	---	0.00	30.182 
22:15	38.8	38.8	38.8	61	26.5	0	0	---	0.00	30.183 
22:20	38.5	38.5	38.5	61	26.2	0	0	---	0.00	30.183 
22:25	38.2	38.2	38.2	62	26.3	0	0	---	0.00	30.183 
22:30	37.9	37.9	37.9	62	26.1	0	0	---	0.00	30.188 
22:35	37.6	37.6	37.6	62	25.8	0	0	---	0.00	30.188 
22:40	37.3	37.3	37.3	63	25.9	0	0	---	0.00	30.188 
22:45	37.2	37.2	37.2	65	26.5	0	0	---	0.00	30.195 
22:50	36.9	36.9	36.9	65	26.3	0	0	---	0.00	30.195 
22:55	36.8	36.8	36.8	65	26.2	0	0	---	0.00	30.195 
23:00	36.6	36.6	36.6	66	26.3	0	0	---	0.00	30.194 
23:05	36.3	36.3	36.3	68	26.8	0	0	---	0.00	30.194 
23:10	36.2	36.2	36.2	68	26.7	0	0	---	0.00	30.194 
23:15	35.9	35.9	35.9	69	26.7	0	0	---	0.00	30.196 
23:20	35.8	35.8	35.8	70	27.0	0	0	---	0.00	30.196 
23:25	35.5	35.5	35.5	70	26.7	0	0	---	0.00	30.196 
23:30	35.3	35.3	35.3	71	26.9	0	0	---	0.00	30.197 
23:35	35.2	35.2	35.2	71	26.8	0	0	---	0.00	30.197 
23:40	35.0	35.0	35.0	72	26.9	0	0	---	0.00	30.197 
23:45	34.7	34.7	34.7	72	26.6	0	0	---	0.00	30.198 
23:50	34.6	34.6	34.6	73	26.9	0	0	---	0.00	30.198 
23:55	34.4	34.4	34.4	74	27.0	0	0	---	0.00	30.198 

CoCoRaHS
IN-AL-39
A2 Web Hosting
Creative Commons License
GoDaddy
search engine by freefind advanced

loaded 2018-11-13 23:22:22 • last modified 2010-11-18 10:43:29
Privacy PolicyDisclaimer
• wx.awcolley.com is powered by PmWiki v.2002016 •
• all content (unless otherwise noted) © 2018 A W Colley